Time;durP1;ratioP1;P1;durP2;ratioP2;P2;SDS_P1;SDS_P2;PMS_P1;PMS_P2;Temp;Humidity;BMP_temperature;BMP_pressure;BME280_temperature;BME280_humidity;BME280_pressure;Samples;Min_cycle;Max_cycle;Signal;HPM_P1;HPM_P2
2021/08/01 00:01:37;;;;;;;56.50;22.07;;;;;;;19.56;90.62;98809.82;1784142;80;21525;-68
2021/08/01 00:04:04;;;;;;;42.60;19.98;;;;;;;19.57;90.63;98807.23;1739032;82;20903;-68
2021/08/01 00:06:31;;;;;;;39.15;18.95;;;;;;;19.58;90.71;98812.21;1784187;80;20851;-68
2021/08/01 00:08:58;;;;;;;43.28;20.40;;;;;;;19.57;90.73;98814.20;1784117;80;21117;-67
2021/08/01 00:11:24;;;;;;;32.67;17.35;;;;;;;19.56;90.83;98816.78;1739031;82;20877;-67
2021/08/01 00:13:51;;;;;;;26.95;14.33;;;;;;;19.57;90.79;98820.36;1784366;80;20926;-67
2021/08/01 00:16:19;;;;;;;26.82;14.93;;;;;;;19.58;90.86;98812.21;1784135;80;20934;-67
2021/08/01 00:18:45;;;;;;;34.90;15.50;;;;;;;19.58;90.68;98820.56;1739014;82;21431;-67
2021/08/01 00:21:12;;;;;;;31.33;18.17;;;;;;;19.58;90.75;98814.40;1784120;80;21061;-68
2021/08/01 00:23:38;;;;;;;34.98;19.05;;;;;;;19.55;91.01;98819.36;1738993;82;20983;-68
2021/08/01 00:26:06;;;;;;;28.42;17.67;;;;;;;19.53;91.01;98830.69;1784276;80;20918;-68
2021/08/01 00:28:32;;;;;;;31.97;18.95;;;;;;;19.52;91.00;98830.48;1738918;81;21819;-68
2021/08/01 00:30:59;;;;;;;48.20;23.98;;;;;;;19.49;91.05;98819.51;1784265;80;21537;-68
2021/08/01 00:33:26;;;;;;;38.10;20.62;;;;;;;19.50;91.17;98813.34;1784107;80;21028;-68
2021/08/01 00:35:52;;;;;;;37.98;18.57;;;;;;;19.48;91.23;98812.94;1784234;80;20836;-68
2021/08/01 00:38:19;;;;;;;35.38;17.65;;;;;;;19.46;91.63;98807.77;1739136;82;20971;-68
2021/08/01 00:40:46;;;;;;;45.63;21.12;;;;;;;19.46;91.82;98795.24;1784135;80;20935;-69
2021/08/01 00:43:13;;;;;;;47.10;20.85;;;;;;;19.47;91.96;98795.44;1739115;82;20888;-69
2021/08/01 00:45:41;;;;;;;41.70;19.70;;;;;;;19.45;91.89;98798.62;1784048;80;22269;-68
2021/08/01 00:48:09;;;;;;;24.12;15.00;;;;;;;19.43;91.96;98798.81;1784226;80;21502;-68
2021/08/01 00:50:37;;;;;;;31.12;15.75;;;;;;;19.41;92.06;98792.84;1784316;80;20974;-68
2021/08/01 00:53:06;;;;;;;25.25;16.02;;;;;;;19.41;92.09;98788.66;1749732;82;20934;-69
2021/08/01 00:55:34;;;;;;;31.52;16.87;;;;;;;19.39;92.13;98795.22;1775968;80;20844;-68
2021/08/01 00:58:01;;;;;;;20.10;13.08;;;;;;;19.35;92.42;98798.58;1776261;80;21415;-68
2021/08/01 01:03:19;;;;;;;22.80;12.10;;;;;;;19.30;92.76;98801.74;1689429;85;20930;-67
2021/08/01 01:05:56;;;;;;;21.10;12.28;;;;;;;19.34;92.60;98799.77;1759386;80;20930;-68
2021/08/01 01:08:39;;;;;;;21.60;13.00;;;;;;;19.35;92.72;98788.25;1750243;82;20875;-68
2021/08/01 01:11:16;;;;;;;21.95;13.35;;;;;;;19.37;92.50;98785.87;1775672;80;20836;-67
2021/08/01 01:13:48;;;;;;;21.90;13.05;;;;;;;19.36;92.64;98787.66;1776225;80;20888;-67
2021/08/01 01:16:17;;;;;;;24.80;13.22;;;;;;;19.31;92.65;98800.55;1749724;82;20978;-67
2021/08/01 01:18:54;;;;;;;18.27;12.65;;;;;;;19.27;92.95;98797.76;1775904;80;20899;-67
2021/08/01 01:21:48;;;;;;;20.00;12.90;;;;;;;19.29;93.13;98796.77;1775879;80;20911;-67
2021/08/01 01:24:18;;;;;;;18.20;12.65;;;;;;;19.35;93.13;98794.41;1749995;82;21122;-67
2021/08/01 01:27:19;;;;;;;17.05;12.43;;;;;;;19.40;92.96;98794.83;1776086;80;21384;-67
2021/08/01 01:30:00;;;;;;;20.50;12.53;;;;;;;19.42;92.92;98798.02;1776147;79;20889;-68
2021/08/01 01:32:54;;;;;;;18.40;12.88;;;;;;;19.40;92.71;98802.38;1775932;80;20896;-68
2021/08/01 01:35:21;;;;;;;25.35;13.93;;;;;;;19.35;92.73;98797.19;1776247;80;21553;-68
2021/08/01 01:37:51;;;;;;;19.82;12.82;;;;;;;19.31;93.03;98799.95;1776188;80;21538;-68
2021/08/01 01:40:21;;;;;;;17.52;12.55;;;;;;;19.30;92.98;98805.91;1772754;80;20927;-68
2021/08/01 01:42:52;;;;;;;17.60;12.07;;;;;;;19.28;93.06;98801.34;1774358;80;21514;-68
2021/08/01 01:45:21;;;;;;;22.10;11.40;;;;;;;19.23;93.09;98799.73;1775881;80;20963;-68
2021/08/01 01:47:52;;;;;;;18.35;11.60;;;;;;;19.22;93.43;98803.70;1770714;80;20974;-68
2021/08/01 01:50:20;;;;;;;25.80;12.50;;;;;;;19.22;93.34;98812.64;1768870;81;21070;-68
2021/08/01 01:52:49;;;;;;;28.55;12.90;;;;;;;19.22;93.30;98802.31;1768724;81;20932;-68
2021/08/01 01:55:19;;;;;;;19.95;13.20;;;;;;;19.26;93.21;98800.93;1769132;81;21511;-68
2021/08/01 01:57:47;;;;;;;19.85;12.00;;;;;;;19.31;92.82;98796.37;1768618;81;20978;-68
2021/08/01 02:00:16;;;;;;;17.67;12.88;;;;;;;19.38;92.56;98789.45;1768916;81;20983;-68
2021/08/01 02:02:45;;;;;;;21.27;12.90;;;;;;;19.38;92.32;98780.50;1768886;81;21139;-68
2021/08/01 02:05:16;;;;;;;24.03;12.97;;;;;;;19.38;92.18;98776.92;1722657;81;20915;-68
2021/08/01 02:08:01;;;;;;;16.23;12.33;;;;;;;19.38;91.98;98772.75;1769073;81;21463;-68
2021/08/01 02:10:41;;;;;;;18.82;12.60;;;;;;;19.39;92.30;98768.78;1729974;81;21018;-68
2021/08/01 02:13:08;;;;;;;22.48;12.80;;;;;;;19.39;92.32;98767.39;1768740;81;21499;-68
2021/08/01 02:15:44;;;;;;;21.13;12.90;;;;;;;19.39;92.25;98772.95;1768938;80;21224;-68
2021/08/01 02:18:34;;;;;;;19.37;12.23;;;;;;;19.37;92.35;98766.39;1749516;81;20916;-68
2021/08/01 02:21:02;;;;;;;18.73;12.40;;;;;;;19.33;92.65;98762.00;1768788;81;20947;-68
2021/08/01 02:23:34;;;;;;;20.57;12.98;;;;;;;19.27;92.65;98758.80;1768797;81;21864;-67
2021/08/01 02:26:00;;;;;;;16.87;12.80;;;;;;;19.26;92.76;98757.80;1749223;81;20952;-67
2021/08/01 02:28:29;;;;;;;19.60;11.68;;;;;;;19.25;93.02;98762.57;1768987;81;21940;-67
2021/08/01 02:30:56;;;;;;;21.48;11.85;;;;;;;19.26;93.20;98761.98;1768981;81;20845;-67
2021/08/01 02:33:26;;;;;;;13.98;10.65;;;;;;;19.25;93.31;98757.00;1768775;81;20848;-67
2021/08/01 02:36:00;;;;;;;18.10;11.70;;;;;;;19.27;93.43;98760.20;1749731;81;20900;-67
2021/08/01 02:38:28;;;;;;;22.85;12.28;;;;;;;19.30;93.60;98764.97;1750292;81;21027;-67
2021/08/01 02:40:57;;;;;;;19.42;11.40;;;;;;;19.32;93.71;98765.97;1749829;81;21070;-66
2021/08/01 02:43:26;;;;;;;18.95;11.57;;;;;;;19.35;93.70;98772.14;1768082;80;21407;-67
2021/08/01 02:45:52;;;;;;;16.85;12.33;;;;;;;19.39;93.69;98770.97;1769023;81;20912;-68
2021/08/01 02:48:22;;;;;;;20.85;11.73;;;;;;;19.42;93.32;98771.57;1757615;80;20972;-68
2021/08/01 02:50:55;;;;;;;19.55;12.00;;;;;;;19.44;93.50;98774.77;1735379;81;20979;-68
2021/08/01 02:53:23;;;;;;;15.93;11.75;;;;;;;19.51;93.37;98780.97;1754511;80;21140;-67
2021/08/01 02:55:52;;;;;;;23.77;11.75;;;;;;;19.57;93.32;98774.42;1742283;81;21637;-67
2021/08/01 02:58:19;;;;;;;17.57;11.40;;;;;;;19.59;93.26;98774.23;1754213;81;20977;-68
2021/08/01 03:00:47;;;;;;;16.67;10.98;;;;;;;19.63;93.41;98777.03;1755581;81;21007;-67
2021/08/01 03:03:18;;;;;;;21.15;11.73;;;;;;;19.68;93.36;98776.61;1754945;81;20885;-68
2021/08/01 03:05:44;;;;;;;17.07;11.25;;;;;;;19.66;92.82;98785.36;1754322;81;21177;-67
2021/08/01 03:08:14;;;;;;;37.53;13.78;;;;;;;19.62;92.69;98788.76;1752416;81;20991;-67
2021/08/01 03:10:43;;;;;;;19.65;11.85;;;;;;;19.60;92.98;98796.70;1734156;81;20936;-67
2021/08/01 03:13:11;;;;;;;22.98;11.80;;;;;;;19.60;92.72;98795.31;1753568;81;20969;-68
2021/08/01 03:15:40;;;;;;;16.07;10.95;;;;;;;19.63;93.07;98791.74;1753709;81;20920;-67
2021/08/01 03:18:08;;;;;;;15.08;11.05;;;;;;;19.73;92.64;98799.30;1750542;80;21133;-67
2021/08/01 03:20:34;;;;;;;16.85;10.75;;;;;;;19.81;92.38;98802.89;1709041;83;20970;-67
2021/08/01 03:23:06;;;;;;;;;;;;;;;19.84;92.41;98802.09;1749570;81;20910;-68
2021/08/01 03:25:54;;;;;;;17.57;11.15;;;;;;;19.89;92.78;98810.66;1663557;83;20186;-67
2021/08/01 03:28:22;;;;;;;23.57;12.05;;;;;;;19.91;93.37;98809.08;1672521;83;21565;-67
2021/08/01 03:30:49;;;;;;;31.93;16.77;;;;;;;19.92;93.65;98807.09;1697233;81;21797;-67
2021/08/01 03:33:17;;;;;;;83.25;56.50;;;;;;;19.95;94.10;98804.90;1757055;81;21633;-67
2021/08/01 03:35:43;;;;;;;100.97;77.17;;;;;;;19.98;94.30;98810.48;1757358;81;21449;-66
2021/08/01 03:38:13;;;;;;;146.80;107.97;;;;;;;20.04;94.26;98805.31;1763943;78;20919;-67
2021/08/01 03:40:58;;;;;;;134.07;101.97;;;;;;;20.08;94.24;98804.72;1739217;80;21534;-68
2021/08/01 03:43:25;;;;;;;109.52;84.62;;;;;;;20.10;94.20;98799.55;1786900;78;21769;-68
2021/08/01 03:45:53;;;;;;;80.70;59.40;;;;;;;20.09;93.93;98802.13;1778412;78;20939;-68
2021/08/01 03:48:20;;;;;;;72.08;53.30;;;;;;;20.05;94.00;98812.48;1722821;82;21496;-68
2021/08/01 03:50:47;;;;;;;62.45;44.53;;;;;;;20.05;94.32;98822.23;1720887;83;21476;-68
2021/08/01 03:53:14;;;;;;;49.00;38.30;;;;;;;20.07;94.38;98818.45;1720871;83;20932;-68
2021/08/01 03:55:41;;;;;;;32.53;23.87;;;;;;;20.08;94.50;98827.00;1720975;83;21137;-69
2021/08/01 03:58:07;;;;;;;27.48;18.62;;;;;;;20.10;94.48;98831.59;1720862;83;21028;-68
2021/08/01 04:00:34;;;;;;;23.00;13.88;;;;;;;20.11;94.42;98828.41;1720778;83;20898;-68
2021/08/01 04:03:00;;;;;;;22.50;15.63;;;;;;;20.17;93.86;98828.01;1720743;83;20984;-68
2021/08/01 04:05:27;;;;;;;24.70;17.73;;;;;;;20.19;93.67;98829.20;1720855;83;20889;-68
2021/08/01 04:07:55;;;;;;;27.42;16.90;;;;;;;20.23;93.72;98832.77;1719474;83;21561;-68
2021/08/01 04:10:23;;;;;;;26.50;15.68;;;;;;;20.29;93.80;98831.17;1720093;83;21443;-68
2021/08/01 04:12:50;;;;;;;32.45;16.32;;;;;;;20.43;93.74;98831.20;1720447;83;20960;-68
2021/08/01 04:15:17;;;;;;;23.05;15.25;;;;;;;20.60;93.37;98829.61;1719558;83;21032;-68
2021/08/01 04:17:43;;;;;;;23.62;16.97;;;;;;;20.76;93.05;98841.73;1719724;83;20996;-68
2021/08/01 04:20:12;;;;;;;23.25;16.00;;;;;;;20.90;93.33;98839.50;1719517;83;21059;-68
2021/08/01 04:22:39;;;;;;;24.30;14.78;;;;;;;21.04;92.77;98842.25;1720214;83;21523;-68
2021/08/01 04:25:07;;;;;;;21.75;14.40;;;;;;;21.21;92.10;98837.25;1720937;83;20862;-68
2021/08/01 04:27:34;;;;;;;26.35;14.78;;;;;;;21.40;90.19;98835.96;1720939;83;21476;-68
2021/08/01 04:30:05;;;;;;;24.12;14.40;;;;;;;21.57;88.93;98827.31;1720769;82;21404;-68
2021/08/01 04:32:31;;;;;;;16.95;11.33;;;;;;;21.77;88.19;98836.78;1721298;83;21197;-68
2021/08/01 04:34:57;;;;;;;20.12;11.53;;;;;;;21.95;87.28;98826.27;1720981;83;20984;-68
2021/08/01 04:37:25;;;;;;;24.45;12.45;;;;;;;22.13;86.42;98831.77;1721017;83;20948;-69
2021/08/01 04:39:51;;;;;;;14.75;10.70;;;;;;;22.28;84.99;98822.67;1720893;83;20989;-68
2021/08/01 04:42:18;;;;;;;14.18;10.82;;;;;;;22.43;83.71;98821.35;1725023;80;20972;-68
2021/08/01 04:44:45;;;;;;;16.90;11.22;;;;;;;22.55;83.03;98808.84;1800371;79;21093;-68
2021/08/01 04:47:13;;;;;;;15.30;10.30;;;;;;;22.64;82.34;98814.14;1792925;79;21522;-68
2021/08/01 04:49:40;;;;;;;20.10;10.50;;;;;;;22.67;82.23;98808.32;1752754;81;20968;-69
2021/08/01 04:52:08;;;;;;;15.80;10.65;;;;;;;22.69;82.73;98802.50;1738519;82;20975;-68
2021/08/01 04:54:36;;;;;;;20.12;10.80;;;;;;;22.70;82.68;98801.90;1738479;82;20923;-69
2021/08/01 04:57:05;;;;;;;16.55;11.95;;;;;;;22.68;83.27;98796.72;1738370;82;21162;-69
2021/08/01 04:59:34;;;;;;;16.85;13.50;;;;;;;22.71;83.19;98797.89;1738226;82;21466;-69
2021/08/01 05:02:02;;;;;;;20.60;13.28;;;;;;;22.73;83.18;98789.27;1738323;82;20980;-69
2021/08/01 05:04:30;;;;;;;17.52;12.90;;;;;;;22.76;83.28;98791.84;1738848;82;21526;-69
2021/08/01 05:06:56;;;;;;;20.82;12.35;;;;;;;22.78;83.01;98790.03;1738534;82;20892;-68
2021/08/01 05:09:23;;;;;;;17.00;12.88;;;;;;;22.77;82.21;98793.43;1738514;82;22062;-68
2021/08/01 05:11:52;;;;;;;16.50;12.60;;;;;;;22.80;82.48;98793.23;1738293;82;21486;-68
2021/08/01 05:14:18;;;;;;;14.98;12.15;;;;;;;22.80;81.96;98788.44;1738651;82;20923;-70
2021/08/01 05:16:45;;;;;;;19.42;12.82;;;;;;;22.81;81.91;98788.63;1738266;82;20986;-70
2021/08/01 05:19:12;;;;;;;21.17;14.33;;;;;;;22.83;81.91;98788.21;1738561;82;21509;-70
2021/08/01 05:21:38;;;;;;;17.40;11.78;;;;;;;22.87;82.25;98790.36;1738363;82;21815;-68
2021/08/01 05:24:05;;;;;;;16.48;10.80;;;;;;;22.92;82.15;98796.30;1756160;81;21563;-67
2021/08/01 05:26:32;;;;;;;15.35;9.95;;;;;;;23.00;82.05;98804.81;1738404;82;20892;-68
2021/08/01 05:28:59;;;;;;;16.23;10.45;;;;;;;23.13;81.81;98808.44;1738207;81;20880;-68
2021/08/01 05:31:26;;;;;;;14.68;9.98;;;;;;;23.26;81.45;98802.48;1738454;82;20888;-67
2021/08/01 05:33:52;;;;;;;14.25;10.45;;;;;;;23.43;81.06;98797.27;1738424;82;21121;-68
2021/08/01 05:36:19;;;;;;;16.23;10.53;;;;;;;23.58;80.52;98804.91;1738318;82;20995;-68
2021/08/01 05:38:46;;;;;;;16.02;10.35;;;;;;;23.75;80.36;98805.24;1738421;82;20876;-68
2021/08/01 05:41:16;;;;;;;19.15;10.60;;;;;;;23.90;79.75;98810.04;1719635;82;20999;-67
2021/08/01 05:43:43;;;;;;;15.55;9.40;;;;;;;24.03;78.40;98822.26;1738681;82;21419;-68
2021/08/01 05:46:11;;;;;;;13.70;10.00;;;;;;;24.09;78.21;98828.19;1738386;82;21165;-68
2021/08/01 05:48:38;;;;;;;17.27;9.83;;;;;;;24.17;78.41;98829.66;1731238;82;21562;-67
2021/08/01 05:51:07;;;;;;;15.63;10.55;;;;;;;24.29;77.64;98829.86;1725970;83;20880;-68
2021/08/01 05:53:35;;;;;;;13.65;9.53;;;;;;;24.38;77.73;98824.33;1711074;84;20937;-68
2021/08/01 05:56:09;;;;;;;13.83;10.28;;;;;;;24.45;75.06;98818.59;1757281;81;20915;-68
2021/08/01 05:58:38;;;;;;;13.83;9.85;;;;;;;24.40;75.77;98814.88;1710934;84;21008;-69
2021/08/01 06:01:17;;;;;;;14.45;9.55;;;;;;;24.47;76.57;98814.14;1755892;81;21413;-69
2021/08/01 06:03:44;;;;;;;16.17;10.25;;;;;;;24.63;76.35;98812.86;1757304;81;20879;-68
2021/08/01 06:06:16;;;;;;;18.87;10.43;;;;;;;24.85;75.37;98818.86;1710935;84;20941;-68
2021/08/01 06:08:45;;;;;;;14.07;9.35;;;;;;;25.04;75.18;98824.96;1757291;81;20930;-68
2021/08/01 06:11:12;;;;;;;14.98;10.25;;;;;;;25.23;75.27;98827.00;1757208;81;21046;-68
2021/08/01 06:13:40;;;;;;;12.47;10.38;;;;;;;25.35;73.54;98833.38;1757168;81;20930;-69
2021/08/01 06:16:08;;;;;;;17.70;9.88;;;;;;;25.40;73.93;98835.68;1757143;81;20923;-68
2021/08/01 06:18:35;;;;;;;13.40;9.90;;;;;;;25.46;73.66;98838.13;1757136;81;21462;-68
2021/08/01 06:21:06;;;;;;;14.75;9.53;;;;;;;25.57;73.41;98835.10;1757404;81;20966;-68
2021/08/01 06:23:36;;;;;;;16.45;10.98;;;;;;;25.68;71.39;98843.34;1757688;81;21703;-68
2021/08/01 06:26:04;;;;;;;19.95;11.83;;;;;;;25.68;71.75;98846.94;1757239;81;20879;-68
2021/08/01 06:28:35;;;;;;;16.15;12.68;;;;;;;25.74;70.87;98852.23;1710952;84;20902;-69
2021/08/01 06:31:03;;;;;;;16.73;10.75;;;;;;;25.78;70.66;98854.97;1756234;81;20898;-69
2021/08/01 06:33:31;;;;;;;20.63;10.77;;;;;;;25.79;70.38;98853.13;1711472;84;20941;-70
2021/08/01 06:35:57;;;;;;;29.30;15.15;;;;;;;25.79;70.03;98855.14;1757310;81;21474;-69
2021/08/01 06:38:24;;;;;;;21.62;10.65;;;;;;;25.79;70.99;98855.94;1757106;81;21564;-69
2021/08/01 06:40:51;;;;;;;21.37;13.00;;;;;;;25.81;69.84;98855.50;1757331;81;21548;-69
2021/08/01 06:43:18;;;;;;;27.58;15.20;;;;;;;25.80;69.55;98862.35;1757192;81;20935;-67
2021/08/01 06:45:44;;;;;;;19.42;11.15;;;;;;;25.78;69.94;98858.57;1757440;81;21433;-67
2021/08/01 06:48:11;;;;;;;25.95;12.25;;;;;;;25.78;69.81;98862.00;1712996;83;21724;-69
2021/08/01 06:50:38;;;;;;;21.77;11.63;;;;;;;25.77;70.65;98861.81;1752629;80;21613;-68
2021/08/01 06:53:05;;;;;;;21.27;11.78;;;;;;;25.80;70.68;98860.34;1769314;79;20879;-68
2021/08/01 06:55:32;;;;;;;14.70;10.63;;;;;;;25.83;70.66;98853.84;1763821;80;20904;-67
2021/08/01 06:57:59;;;;;;;24.27;12.73;;;;;;;25.82;70.02;98852.25;1769505;80;21490;-68
2021/08/01 07:00:27;;;;;;;17.98;10.78;;;;;;;25.79;70.56;98847.50;1780641;80;21144;-68
2021/08/01 07:02:57;;;;;;;18.50;11.57;;;;;;;25.77;70.11;98844.33;1783544;80;21647;-69
2021/08/01 07:05:24;;;;;;;19.75;10.72;;;;;;;25.78;70.60;98838.10;1784269;80;20979;-69
2021/08/01 07:07:51;;;;;;;15.88;10.40;;;;;;;25.78;70.44;98842.31;1749770;82;20915;-68
2021/08/01 07:10:18;;;;;;;17.32;10.08;;;;;;;25.79;70.25;98841.09;1774856;80;21011;-69
2021/08/01 07:12:45;;;;;;;16.48;11.10;;;;;;;25.84;70.75;98829.33;1774536;81;21112;-68
2021/08/01 07:15:15;;;;;;;14.30;10.30;;;;;;;25.93;70.73;98832.34;1774075;81;20915;-68
2021/08/01 07:17:41;;;;;;;16.30;10.43;;;;;;;25.96;70.23;98830.06;1774585;81;21455;-68
2021/08/01 07:20:11;;;;;;;16.57;10.58;;;;;;;26.00;69.81;98825.91;1774267;81;20955;-68
2021/08/01 07:22:38;;;;;;;12.70;10.63;;;;;;;26.06;69.37;98826.19;1774768;81;20880;-68
2021/08/01 07:25:07;;;;;;;17.40;11.78;;;;;;;26.15;70.16;98823.56;1770956;79;23214;-68
2021/08/01 07:45:41;;;;;;;13.15;10.15;;;;;;;27.04;66.64;98834.00;1771971;78;20967;-67
2021/08/01 07:48:08;;;;;;;15.72;10.15;;;;;;;27.19;67.12;98837.19;1767492;80;21430;-67
2021/08/01 07:50:34;;;;;;;19.02;10.25;;;;;;;27.32;65.55;98823.94;1764066;80;20972;-67
2021/08/01 07:53:01;;;;;;;22.62;10.90;;;;;;;27.41;65.17;98819.85;1761591;79;21486;-67
2021/08/01 07:55:27;;;;;;;17.20;10.82;;;;;;;27.50;64.57;98810.74;1762780;80;20907;-67
2021/08/01 07:57:55;;;;;;;20.30;10.82;;;;;;;27.63;64.19;98813.00;1746169;82;20920;-68
2021/08/01 08:00:23;;;;;;;16.77;10.95;;;;;;;27.81;63.59;98821.69;1756575;80;20920;-68
2021/08/01 08:02:49;;;;;;;16.70;10.05;;;;;;;28.01;64.01;98820.69;1760699;80;21014;-67
2021/08/01 08:05:16;;;;;;;22.30;10.18;;;;;;;28.19;62.58;98822.32;1746169;82;21200;-67
2021/08/01 08:07:43;;;;;;;13.60;10.35;;;;;;;28.29;61.09;98823.25;1746070;82;20931;-68
2021/08/01 08:10:11;;;;;;;16.23;9.90;;;;;;;28.37;61.56;98827.39;1746130;82;20932;-67
2021/08/01 08:12:37;;;;;;;19.17;10.03;;;;;;;28.64;63.13;98828.31;1746547;82;20923;-68
2021/08/01 08:15:06;;;;;;;16.40;9.70;;;;;;;29.04;61.39;98820.06;1746360;82;21544;-68
2021/08/01 08:17:33;;;;;;;19.07;10.13;;;;;;;29.39;59.34;98824.42;1759894;80;21812;-67
2021/08/01 08:20:02;;;;;;;14.65;9.30;;;;;;;29.72;58.67;98820.55;1774419;80;20967;-68
2021/08/01 08:22:28;;;;;;;13.45;9.38;;;;;;;30.10;56.45;98816.02;1755386;80;20931;-67
2021/08/01 08:24:55;;;;;;;20.92;9.38;;;;;;;30.31;54.65;98822.08;1745034;82;21054;-67
2021/08/01 08:27:21;;;;;;;17.05;9.33;;;;;;;30.40;54.57;98821.48;1746253;82;20951;-67
2021/08/01 08:29:48;;;;;;;12.70;9.08;;;;;;;30.56;54.38;98824.67;1746399;82;21422;-67
2021/08/01 08:32:15;;;;;;;12.85;8.88;;;;;;;30.71;53.60;98823.44;1745275;82;20963;-67
2021/08/01 08:34:43;;;;;;;12.80;8.75;;;;;;;30.83;52.65;98826.77;1745400;82;20976;-68
2021/08/01 08:37:10;;;;;;;15.48;9.05;;;;;;;30.96;52.96;98835.13;1745377;82;20936;-68
2021/08/01 08:39:37;;;;;;;13.98;9.25;;;;;;;31.09;52.40;98835.13;1744856;82;21126;-68
2021/08/01 08:42:03;;;;;;;10.50;8.28;;;;;;;31.24;53.52;98834.50;1745563;82;21940;-69
2021/08/01 08:44:30;;;;;;;18.25;9.93;;;;;;;31.32;53.06;98835.13;1745221;81;20896;-68
2021/08/01 08:46:56;;;;;;;16.90;9.43;;;;;;;31.26;53.06;98834.19;1743957;82;20936;-69
2021/08/01 08:49:23;;;;;;;15.05;8.78;;;;;;;31.09;52.67;98839.38;1744605;82;20940;-69
2021/08/01 08:51:53;;;;;;;17.40;9.78;;;;;;;30.81;52.34;98837.15;1744563;82;21526;-69
2021/08/01 08:54:40;;;;;;;13.50;9.25;;;;;;;30.67;53.85;98834.92;1744528;82;21182;-68
2021/08/01 08:57:25;;;;;;;13.13;9.08;;;;;;;30.72;52.48;98839.17;1748753;80;21474;-69
2021/08/01 09:00:11;;;;;;;15.45;9.18;;;;;;;30.42;52.84;98835.95;1737505;82;20924;-71
2021/08/01 09:02:39;;;;;;;16.20;9.73;;;;;;;30.05;53.99;98850.59;1744633;82;20853;-71
2021/08/01 09:05:07;;;;;;;17.32;10.38;;;;;;;29.67;55.48;98850.84;1744622;82;20857;-74
2021/08/01 09:07:38;;;;;;;18.57;10.32;;;;;;;29.50;56.84;98853.71;1762253;79;21769;-70
2021/08/01 09:10:08;;;;;;;15.95;10.15;;;;;;;29.72;57.37;98856.53;1712127;82;21479;-70
2021/08/01 09:12:48;;;;;;;17.50;9.68;;;;;;;30.15;56.41;98855.04;1722095;81;20917;-71
2021/08/01 09:15:20;;;;;;;13.22;9.20;;;;;;;30.55;53.40;98861.32;1711400;83;20940;-70
2021/08/01 09:17:48;;;;;;;17.60;10.53;;;;;;;30.79;51.68;98868.62;1711926;83;20932;-72
2021/08/01 09:20:19;;;;;;;14.35;10.20;;;;;;;30.54;52.19;98871.08;1711673;83;21142;-69
2021/08/01 09:23:06;;;;;;;15.38;9.25;;;;;;;30.23;53.63;98866.24;1711871;83;20945;-72
2021/08/01 09:25:39;;;;;;;19.90;10.30;;;;;;;30.09;54.29;98863.98;1727052;82;20903;-78
2021/08/01 09:28:19;;;;;;;17.87;9.75;;;;;;;29.92;55.21;98860.42;1693850;84;20922;-78
2021/08/01 09:31:02;;;;;;;16.27;8.93;;;;;;;30.07;54.51;98867.89;1693537;84;20970;-71
2021/08/01 09:33:43;;;;;;;17.45;8.88;;;;;;;30.04;53.81;98867.41;1693695;84;21763;-70
2021/08/01 09:36:19;;;;;;;13.55;8.73;;;;;;;29.68;54.75;98871.44;1711497;83;21321;-70
2021/08/01 09:38:57;;;;;;;17.17;9.03;;;;;;;29.39;56.32;98873.11;1711678;83;20985;-67
2021/08/01 09:41:36;;;;;;;17.40;9.58;;;;;;;29.14;57.13;98878.23;1711476;83;20946;-69
2021/08/01 09:44:05;;;;;;;13.25;9.43;;;;;;;28.95;57.59;98878.69;1711408;83;20994;-69
2021/08/01 09:46:43;;;;;;;10.65;9.05;;;;;;;28.83;58.35;98876.09;1726138;82;21188;-75
2021/08/01 09:49:19;;;;;;;16.45;10.23;;;;;;;28.78;58.87;98877.25;1693497;84;20997;-67
2021/08/01 09:51:51;;;;;;;14.60;9.35;;;;;;;28.72;59.78;98871.39;1706929;84;21397;-67
2021/08/01 09:54:19;;;;;;;17.87;10.23;;;;;;;28.75;59.88;98870.48;1706908;84;20847;-67
2021/08/01 09:57:01;;;;;;;21.30;10.03;;;;;;;28.77;59.44;98871.44;1723882;82;20825;-67
2021/08/01 09:59:30;;;;;;;14.40;10.03;;;;;;;28.81;61.17;98870.69;1707264;84;21178;-66
2021/08/01 10:02:04;;;;;;;20.52;10.03;;;;;;;28.87;60.59;98868.28;1707052;84;20895;-67
2021/08/01 10:04:37;;;;;;;20.52;10.28;;;;;;;28.88;58.99;98869.06;1707031;84;20922;-67
2021/08/01 10:07:15;;;;;;;15.72;9.30;;;;;;;28.78;60.08;98864.54;1706776;84;20998;-67
2021/08/01 10:09:44;;;;;;;14.68;10.30;;;;;;;28.59;60.10;98873.44;1707158;84;20967;-67
2021/08/01 10:12:12;;;;;;;22.95;10.70;;;;;;;28.37;60.95;98859.23;1713639;82;21068;-68
2021/08/01 10:14:39;;;;;;;17.85;11.03;;;;;;;28.19;61.48;98854.15;1700954;83;20839;-67
2021/08/01 10:17:06;;;;;;;15.88;11.25;;;;;;;28.04;61.75;98851.60;1726523;82;20871;-67
2021/08/01 10:19:34;;;;;;;22.65;11.25;;;;;;;27.90;63.31;98852.04;1719221;82;20891;-68
2021/08/01 10:22:03;;;;;;;19.40;12.68;;;;;;;27.79;64.26;98852.36;1706881;84;20918;-67
2021/08/01 10:24:44;;;;;;;16.65;10.70;;;;;;;27.67;65.51;98866.46;1707288;84;21095;-68
2021/08/01 10:27:10;;;;;;;18.98;12.10;;;;;;;27.47;66.16;98877.25;1722141;82;20974;-67
2021/08/01 10:29:48;;;;;;;17.95;11.95;;;;;;;27.27;67.47;98880.84;1707526;82;20859;-70
2021/08/01 10:32:17;;;;;;;15.20;12.70;;;;;;;27.13;68.35;98869.98;1707239;84;20883;-69
2021/08/01 10:34:59;;;;;;;24.70;13.93;;;;;;;27.02;69.23;98861.03;1706902;84;20954;-69
2021/08/01 10:37:41;;;;;;;20.10;13.43;;;;;;;27.00;69.26;98850.83;1707597;82;21825;-70
2021/08/01 10:40:10;;;;;;;20.17;14.03;;;;;;;26.93;69.72;98842.70;1723287;82;20895;-69
2021/08/01 10:42:40;;;;;;;19.67;12.85;;;;;;;26.85;70.17;98834.89;1725214;82;20855;-68
2021/08/01 10:45:09;;;;;;;23.60;12.45;;;;;;;26.82;70.58;98831.55;1727054;82;20915;-69
2021/08/01 10:47:35;;;;;;;27.87;12.75;;;;;;;26.89;70.57;98827.93;1690428;82;20952;-69
2021/08/01 10:50:05;;;;;;;19.77;12.03;;;;;;;26.96;70.39;98834.02;1668058;86;21064;-69
2021/08/01 10:52:34;;;;;;;21.77;13.68;;;;;;;27.08;69.94;98827.66;1651128;87;37382;-69
2021/08/01 10:55:04;;;;;;;30.55;15.55;;;;;;;27.21;69.52;98829.08;1654920;85;21000;-70
2021/08/01 10:57:32;;;;;;;21.20;13.22;;;;;;;27.27;69.31;98818.23;1666702;85;20945;-69
2021/08/01 11:00:05;;;;;;;21.62;12.07;;;;;;;27.38;69.76;98820.75;1678809;85;20949;-71
2021/08/01 11:02:34;;;;;;;15.58;10.20;;;;;;;27.47;69.50;98820.09;1678679;85;21224;-70
2021/08/01 11:05:34;;;;;;;16.80;10.75;;;;;;;27.57;68.77;98824.01;1678516;85;21032;-70
2021/08/01 11:08:01;;;;;;;32.10;11.10;;;;;;;27.66;67.62;98821.97;1678778;85;20996;-70
2021/08/01 11:10:30;;;;;;;15.70;11.10;;;;;;;27.71;67.80;98823.45;1678682;84;20921;-70
2021/08/01 11:12:57;;;;;;;23.92;12.65;;;;;;;27.87;68.63;98827.55;1678640;84;20948;-71
2021/08/01 11:15:45;;;;;;;20.45;13.85;;;;;;;28.11;68.19;98823.79;1678657;85;21463;-71
2021/08/01 11:18:13;;;;;;;19.17;12.05;;;;;;;28.34;67.42;98831.91;1678345;85;21546;-70
2021/08/01 11:20:46;;;;;;;22.48;12.73;;;;;;;28.65;66.15;98826.44;1678722;85;21424;-70
2021/08/01 11:23:13;;;;;;;24.40;12.28;;;;;;;28.99;64.54;98820.02;1673647;85;21000;-70
2021/08/01 11:25:44;;;;;;;16.73;12.10;;;;;;;29.35;62.59;98819.52;1662547;85;20965;-70
2021/08/01 11:28:22;;;;;;;21.00;11.65;;;;;;;29.57;62.48;98820.93;1650550;85;21149;-70
2021/08/01 11:31:01;;;;;;;21.52;11.08;;;;;;;29.79;61.40;98820.91;1650640;87;20964;-70
2021/08/01 11:33:30;;;;;;;19.50;11.35;;;;;;;29.98;60.85;98826.03;1663912;85;21066;-70
2021/08/01 11:36:19;;;;;;;21.37;12.85;;;;;;;30.16;60.14;98834.60;1652261;85;21037;-69
2021/08/01 11:38:55;;;;;;;18.77;11.48;;;;;;;30.31;60.23;98834.81;1650608;87;21159;-69
2021/08/01 11:41:37;;;;;;;16.62;10.10;;;;;;;30.51;60.16;98839.44;1652704;84;21129;-69
2021/08/01 11:44:17;;;;;;;19.02;10.63;;;;;;;30.67;58.80;98833.50;1671148;84;21000;-70
2021/08/01 11:46:59;;;;;;;15.55;11.03;;;;;;;30.82;58.87;98837.30;1702757;83;20948;-70
2021/08/01 11:49:49;;;;;;;28.62;11.05;;;;;;;31.11;59.53;98834.66;1700054;83;21455;-70
2021/08/01 11:52:43;;;;;;;16.87;10.18;;;;;;;31.46;57.57;98823.14;1714273;83;20943;-70
2021/08/01 11:55:17;;;;;;;14.53;9.83;;;;;;;31.73;56.08;98818.70;1704657;83;22346;-70